sensor_id;sensor_type;location;lat;lon;timestamp;temperature;humidity
43338;DHT22;28933;52.492;13.434;2023-02-28T00:00:34;4.50;90.80
43338;DHT22;28933;52.492;13.434;2023-02-28T00:03:00;4.50;90.80
43338;DHT22;28933;52.492;13.434;2023-02-28T00:05:27;4.60;90.80
43338;DHT22;28933;52.492;13.434;2023-02-28T00:07:53;4.60;90.90
43338;DHT22;28933;52.492;13.434;2023-02-28T00:10:26;4.60;90.90
43338;DHT22;28933;52.492;13.434;2023-02-28T00:12:54;4.60;90.90
43338;DHT22;28933;52.492;13.434;2023-02-28T00:15:22;4.70;90.90
43338;DHT22;28933;52.492;13.434;2023-02-28T00:17:48;4.60;90.80
43338;DHT22;28933;52.492;13.434;2023-02-28T00:20:14;4.60;90.80
43338;DHT22;28933;52.492;13.434;2023-02-28T00:22:43;4.70;90.80
43338;DHT22;28933;52.492;13.434;2023-02-28T00:25:11;4.60;90.90
43338;DHT22;28933;52.492;13.434;2023-02-28T00:27:37;4.60;90.90
43338;DHT22;28933;52.492;13.434;2023-02-28T00:30:04;4.60;90.90
43338;DHT22;28933;52.492;13.434;2023-02-28T00:32:30;4.60;90.90
43338;DHT22;28933;52.492;13.434;2023-02-28T00:34:56;4.60;91.00
43338;DHT22;28933;52.492;13.434;2023-02-28T00:37:22;4.60;91.20
43338;DHT22;28933;52.492;13.434;2023-02-28T00:39:47;4.60;91.00
43338;DHT22;28933;52.492;13.434;2023-02-28T00:42:13;4.60;91.00
43338;DHT22;28933;52.492;13.434;2023-02-28T00:44:39;4.60;91.10
43338;DHT22;28933;52.492;13.434;2023-02-28T00:47:04;4.60;91.10
43338;DHT22;28933;52.492;13.434;2023-02-28T00:49:30;4.60;91.10
43338;DHT22;28933;52.492;13.434;2023-02-28T00:51:56;4.60;91.20
43338;DHT22;28933;52.492;13.434;2023-02-28T00:54:23;4.60;91.20
43338;DHT22;28933;52.492;13.434;2023-02-28T00:56:49;4.60;91.20
43338;DHT22;28933;52.492;13.434;2023-02-28T00:59:16;4.60;91.10
43338;DHT22;28933;52.492;13.434;2023-02-28T01:01:43;4.60;91.20
43338;DHT22;28933;52.492;13.434;2023-02-28T01:04:09;4.60;91.20
43338;DHT22;28933;52.492;13.434;2023-02-28T01:06:35;4.60;91.30
43338;DHT22;28933;52.492;13.434;2023-02-28T01:09:02;4.60;91.30
43338;DHT22;28933;52.492;13.434;2023-02-28T01:11:28;4.70;91.30
43338;DHT22;28933;52.492;13.434;2023-02-28T01:13:53;4.60;91.30
43338;DHT22;28933;52.492;13.434;2023-02-28T01:16:19;4.60;91.30
43338;DHT22;28933;52.492;13.434;2023-02-28T01:18:45;4.70;91.40
43338;DHT22;28933;52.492;13.434;2023-02-28T01:21:13;4.60;91.40
43338;DHT22;28933;52.492;13.434;2023-02-28T01:23:40;4.70;91.40
43338;DHT22;28933;52.492;13.434;2023-02-28T01:26:07;4.70;91.40
43338;DHT22;28933;52.492;13.434;2023-02-28T01:28:33;4.70;91.40
43338;DHT22;28933;52.492;13.434;2023-02-28T01:30:59;4.70;91.50
43338;DHT22;28933;52.492;13.434;2023-02-28T01:33:24;4.70;91.50
43338;DHT22;28933;52.492;13.434;2023-02-28T01:36:00;4.60;91.50
43338;DHT22;28933;52.492;13.434;2023-02-28T01:38:27;4.70;91.50
43338;DHT22;28933;52.492;13.434;2023-02-28T01:40:53;4.70;91.40
43338;DHT22;28933;52.492;13.434;2023-02-28T01:46:16;4.60;91.50
43338;DHT22;28933;52.492;13.434;2023-02-28T01:48:56;4.50;91.40
43338;DHT22;28933;52.492;13.434;2023-02-28T01:51:34;4.50;91.50
43338;DHT22;28933;52.492;13.434;2023-02-28T01:54:06;4.50;91.60
43338;DHT22;28933;52.492;13.434;2023-02-28T01:56:43;4.40;91.60
43338;DHT22;28933;52.492;13.434;2023-02-28T01:59:13;4.40;91.60
43338;DHT22;28933;52.492;13.434;2023-02-28T02:01:40;4.30;91.60
43338;DHT22;28933;52.492;13.434;2023-02-28T02:04:05;4.30;91.70
43338;DHT22;28933;52.492;13.434;2023-02-28T02:06:38;4.30;91.70
43338;DHT22;28933;52.492;13.434;2023-02-28T02:09:04;4.20;91.70
43338;DHT22;28933;52.492;13.434;2023-02-28T02:11:30;4.20;91.90
43338;DHT22;28933;52.492;13.434;2023-02-28T02:17:10;4.10;91.80
43338;DHT22;28933;52.492;13.434;2023-02-28T02:23:11;4.10;91.80
43338;DHT22;28933;52.492;13.434;2023-02-28T02:29:00;4.00;91.90
43338;DHT22;28933;52.492;13.434;2023-02-28T02:37:16;3.80;92.00
43338;DHT22;28933;52.492;13.434;2023-02-28T02:40:00;3.70;92.00
43338;DHT22;28933;52.492;13.434;2023-02-28T02:45:13;3.70;92.10
43338;DHT22;28933;52.492;13.434;2023-02-28T02:47:42;3.60;92.10
43338;DHT22;28933;52.492;13.434;2023-02-28T02:50:14;3.60;92.20
43338;DHT22;28933;52.492;13.434;2023-02-28T02:52:45;3.60;92.30
43338;DHT22;28933;52.492;13.434;2023-02-28T02:55:13;3.50;92.30
43338;DHT22;28933;52.492;13.434;2023-02-28T02:58:07;3.50;92.30
43338;DHT22;28933;52.492;13.434;2023-02-28T03:00:38;3.50;92.40
43338;DHT22;28933;52.492;13.434;2023-02-28T03:03:05;3.40;92.40
43338;DHT22;28933;52.492;13.434;2023-02-28T03:05:42;3.40;92.50
43338;DHT22;28933;52.492;13.434;2023-02-28T03:08:09;3.40;92.50
43338;DHT22;28933;52.492;13.434;2023-02-28T03:10:38;3.30;92.50
43338;DHT22;28933;52.492;13.434;2023-02-28T03:16:36;3.30;92.70
43338;DHT22;28933;52.492;13.434;2023-02-28T03:22:01;3.30;92.70
43338;DHT22;28933;52.492;13.434;2023-02-28T03:27:46;3.30;92.80
43338;DHT22;28933;52.492;13.434;2023-02-28T03:30:32;3.30;93.00
43338;DHT22;28933;52.492;13.434;2023-02-28T03:35:34;3.30;92.80
43338;DHT22;28933;52.492;13.434;2023-02-28T03:43:40;3.30;92.90
43338;DHT22;28933;52.492;13.434;2023-02-28T03:46:10;3.30;92.90
43338;DHT22;28933;52.492;13.434;2023-02-28T03:48:45;3.30;93.00
43338;DHT22;28933;52.492;13.434;2023-02-28T03:51:16;3.30;93.00
43338;DHT22;28933;52.492;13.434;2023-02-28T03:53:57;3.30;93.10
43338;DHT22;28933;52.492;13.434;2023-02-28T03:56:32;3.20;93.10
43338;DHT22;28933;52.492;13.434;2023-02-28T03:59:19;3.20;93.10
43338;DHT22;28933;52.492;13.434;2023-02-28T04:01:48;3.20;93.40
43338;DHT22;28933;52.492;13.434;2023-02-28T04:04:15;3.20;93.10
43338;DHT22;28933;52.492;13.434;2023-02-28T04:06:41;3.20;93.10
43338;DHT22;28933;52.492;13.434;2023-02-28T04:09:10;3.20;93.20
43338;DHT22;28933;52.492;13.434;2023-02-28T04:11:37;3.20;93.20
43338;DHT22;28933;52.492;13.434;2023-02-28T04:14:04;3.20;93.30
43338;DHT22;28933;52.492;13.434;2023-02-28T04:16:31;3.10;93.30
43338;DHT22;28933;52.492;13.434;2023-02-28T04:18:57;3.10;93.40
43338;DHT22;28933;52.492;13.434;2023-02-28T04:21:29;3.20;93.40
43338;DHT22;28933;52.492;13.434;2023-02-28T04:23:55;3.20;93.40
43338;DHT22;28933;52.492;13.434;2023-02-28T04:26:21;3.10;93.40
43338;DHT22;28933;52.492;13.434;2023-02-28T04:28:46;3.10;93.50
43338;DHT22;28933;52.492;13.434;2023-02-28T04:31:12;3.10;93.50
43338;DHT22;28933;52.492;13.434;2023-02-28T04:33:38;3.00;93.50
43338;DHT22;28933;52.492;13.434;2023-02-28T04:36:08;3.00;93.60
43338;DHT22;28933;52.492;13.434;2023-02-28T04:38:38;3.00;93.60
43338;DHT22;28933;52.492;13.434;2023-02-28T04:41:04;2.90;93.60
43338;DHT22;28933;52.492;13.434;2023-02-28T04:43:30;2.90;93.60
43338;DHT22;28933;52.492;13.434;2023-02-28T04:45:57;2.90;93.60
43338;DHT22;28933;52.492;13.434;2023-02-28T04:48:35;2.90;93.70
43338;DHT22;28933;52.492;13.434;2023-02-28T04:51:02;2.90;93.70
43338;DHT22;28933;52.492;13.434;2023-02-28T04:53:29;2.90;93.70
43338;DHT22;28933;52.492;13.434;2023-02-28T04:55:58;2.90;93.70
43338;DHT22;28933;52.492;13.434;2023-02-28T04:58:24;2.80;93.70
43338;DHT22;28933;52.492;13.434;2023-02-28T05:00:53;2.90;93.80
43338;DHT22;28933;52.492;13.434;2023-02-28T05:03:20;2.80;93.80
43338;DHT22;28933;52.492;13.434;2023-02-28T05:05:48;2.80;93.70
43338;DHT22;28933;52.492;13.434;2023-02-28T05:08:14;2.80;93.80
43338;DHT22;28933;52.492;13.434;2023-02-28T05:10:40;2.80;93.70
43338;DHT22;28933;52.492;13.434;2023-02-28T05:13:05;2.80;93.70
43338;DHT22;28933;52.492;13.434;2023-02-28T05:15:31;2.80;93.70
43338;DHT22;28933;52.492;13.434;2023-02-28T05:17:57;2.80;93.70
43338;DHT22;28933;52.492;13.434;2023-02-28T05:20:22;2.70;93.70
43338;DHT22;28933;52.492;13.434;2023-02-28T05:22:49;2.80;94.00
43338;DHT22;28933;52.492;13.434;2023-02-28T05:25:19;2.70;93.80
43338;DHT22;28933;52.492;13.434;2023-02-28T05:27:44;2.70;93.90
43338;DHT22;28933;52.492;13.434;2023-02-28T05:30:11;2.70;93.90
43338;DHT22;28933;52.492;13.434;2023-02-28T05:32:38;2.70;93.90
43338;DHT22;28933;52.492;13.434;2023-02-28T05:35:04;2.70;94.00
43338;DHT22;28933;52.492;13.434;2023-02-28T05:37:30;2.70;94.00
43338;DHT22;28933;52.492;13.434;2023-02-28T05:39:56;2.60;94.00
43338;DHT22;28933;52.492;13.434;2023-02-28T05:42:21;2.60;94.00
43338;DHT22;28933;52.492;13.434;2023-02-28T05:44:47;2.60;94.00
43338;DHT22;28933;52.492;13.434;2023-02-28T05:47:12;2.60;94.10
43338;DHT22;28933;52.492;13.434;2023-02-28T05:49:41;2.60;94.10
43338;DHT22;28933;52.492;13.434;2023-02-28T05:52:07;2.60;94.10
43338;DHT22;28933;52.492;13.434;2023-02-28T05:54:33;2.60;94.10
43338;DHT22;28933;52.492;13.434;2023-02-28T05:56:58;2.60;94.10
43338;DHT22;28933;52.492;13.434;2023-02-28T05:59:24;2.60;94.10
43338;DHT22;28933;52.492;13.434;2023-02-28T06:01:50;2.60;94.20
43338;DHT22;28933;52.492;13.434;2023-02-28T06:04:18;2.60;94.20
43338;DHT22;28933;52.492;13.434;2023-02-28T06:06:48;2.50;94.30
43338;DHT22;28933;52.492;13.434;2023-02-28T06:09:14;2.50;94.30
43338;DHT22;28933;52.492;13.434;2023-02-28T06:11:41;2.50;94.30
43338;DHT22;28933;52.492;13.434;2023-02-28T06:14:07;2.60;94.30
43338;DHT22;28933;52.492;13.434;2023-02-28T06:16:35;2.60;94.30
43338;DHT22;28933;52.492;13.434;2023-02-28T06:19:03;2.60;94.30
43338;DHT22;28933;52.492;13.434;2023-02-28T06:21:29;2.60;94.30
43338;DHT22;28933;52.492;13.434;2023-02-28T06:23:55;2.50;94.30
43338;DHT22;28933;52.492;13.434;2023-02-28T06:26:21;2.50;94.30
43338;DHT22;28933;52.492;13.434;2023-02-28T06:28:47;2.60;94.30
43338;DHT22;28933;52.492;13.434;2023-02-28T06:31:15;2.60;94.30
43338;DHT22;28933;52.492;13.434;2023-02-28T06:33:42;2.60;94.30
43338;DHT22;28933;52.492;13.434;2023-02-28T06:36:09;2.60;94.20
43338;DHT22;28933;52.492;13.434;2023-02-28T06:38:36;2.60;94.20
43338;DHT22;28933;52.492;13.434;2023-02-28T06:41:02;2.60;94.20
43338;DHT22;28933;52.492;13.434;2023-02-28T06:43:29;2.60;94.20
43338;DHT22;28933;52.492;13.434;2023-02-28T06:45:59;2.60;94.20
43338;DHT22;28933;52.492;13.434;2023-02-28T06:48:26;2.70;94.40
43338;DHT22;28933;52.492;13.434;2023-02-28T06:50:52;2.70;94.20
43338;DHT22;28933;52.492;13.434;2023-02-28T06:53:26;2.70;94.20
43338;DHT22;28933;52.492;13.434;2023-02-28T06:55:51;2.80;94.20
43338;DHT22;28933;52.492;13.434;2023-02-28T06:58:17;2.80;94.10
43338;DHT22;28933;52.492;13.434;2023-02-28T07:00:45;2.80;94.10
43338;DHT22;28933;52.492;13.434;2023-02-28T07:03:12;2.90;94.10
43338;DHT22;28933;52.492;13.434;2023-02-28T07:05:39;2.90;94.00
43338;DHT22;28933;52.492;13.434;2023-02-28T07:08:05;3.00;93.90
43338;DHT22;28933;52.492;13.434;2023-02-28T07:10:33;3.00;93.80
43338;DHT22;28933;52.492;13.434;2023-02-28T07:12:59;3.00;93.80
43338;DHT22;28933;52.492;13.434;2023-02-28T07:15:27;3.00;93.70
43338;DHT22;28933;52.492;13.434;2023-02-28T07:17:53;3.10;93.60
43338;DHT22;28933;52.492;13.434;2023-02-28T07:20:19;3.10;93.60
43338;DHT22;28933;52.492;13.434;2023-02-28T07:22:44;3.10;93.50
43338;DHT22;28933;52.492;13.434;2023-02-28T07:25:10;3.20;93.50
43338;DHT22;28933;52.492;13.434;2023-02-28T07:27:35;3.20;93.40
43338;DHT22;28933;52.492;13.434;2023-02-28T07:30:01;3.20;93.40
43338;DHT22;28933;52.492;13.434;2023-02-28T07:32:29;3.30;93.60
43338;DHT22;28933;52.492;13.434;2023-02-28T07:34:54;3.30;93.70
43338;DHT22;28933;52.492;13.434;2023-02-28T07:37:20;3.40;93.50
43338;DHT22;28933;52.492;13.434;2023-02-28T07:39:45;3.40;93.40
43338;DHT22;28933;52.492;13.434;2023-02-28T07:42:11;3.50;93.30
43338;DHT22;28933;52.492;13.434;2023-02-28T07:44:41;3.50;93.40
43338;DHT22;28933;52.492;13.434;2023-02-28T07:47:10;3.60;93.10
43338;DHT22;28933;52.492;13.434;2023-02-28T07:49:36;3.60;92.80
43338;DHT22;28933;52.492;13.434;2023-02-28T07:52:04;3.70;92.70
43338;DHT22;28933;52.492;13.434;2023-02-28T07:54:30;3.70;92.60
43338;DHT22;28933;52.492;13.434;2023-02-28T07:56:56;3.70;92.70
43338;DHT22;28933;52.492;13.434;2023-02-28T07:59:22;3.80;92.40
43338;DHT22;28933;52.492;13.434;2023-02-28T08:01:47;3.80;92.20
43338;DHT22;28933;52.492;13.434;2023-02-28T08:04:16;3.90;92.10
43338;DHT22;28933;52.492;13.434;2023-02-28T08:06:41;3.90;91.90
43338;DHT22;28933;52.492;13.434;2023-02-28T08:09:07;4.00;91.70
43338;DHT22;28933;52.492;13.434;2023-02-28T08:11:33;4.00;91.60
43338;DHT22;28933;52.492;13.434;2023-02-28T08:13:59;4.10;91.40
43338;DHT22;28933;52.492;13.434;2023-02-28T08:16:24;4.10;91.10
43338;DHT22;28933;52.492;13.434;2023-02-28T08:18:51;4.10;91.00
43338;DHT22;28933;52.492;13.434;2023-02-28T08:21:17;4.10;90.80
43338;DHT22;28933;52.492;13.434;2023-02-28T08:23:43;4.10;90.60
43338;DHT22;28933;52.492;13.434;2023-02-28T08:26:09;4.20;90.50
43338;DHT22;28933;52.492;13.434;2023-02-28T08:28:34;4.20;90.40
43338;DHT22;28933;52.492;13.434;2023-02-28T08:31:00;4.30;90.30
43338;DHT22;28933;52.492;13.434;2023-02-28T08:33:27;4.30;90.10
43338;DHT22;28933;52.492;13.434;2023-02-28T08:35:54;4.40;90.00
43338;DHT22;28933;52.492;13.434;2023-02-28T08:38:20;4.40;89.90
43338;DHT22;28933;52.492;13.434;2023-02-28T08:40:46;4.40;89.50
43338;DHT22;28933;52.492;13.434;2023-02-28T08:43:11;4.50;89.20
43338;DHT22;28933;52.492;13.434;2023-02-28T08:45:37;4.60;88.80
43338;DHT22;28933;52.492;13.434;2023-02-28T08:48:03;4.50;88.40
43338;DHT22;28933;52.492;13.434;2023-02-28T08:50:28;4.50;88.10
43338;DHT22;28933;52.492;13.434;2023-02-28T08:52:54;4.60;87.50
43338;DHT22;28933;52.492;13.434;2023-02-28T08:55:20;4.60;87.20
43338;DHT22;28933;52.492;13.434;2023-02-28T08:57:45;4.60;87.20
43338;DHT22;28933;52.492;13.434;2023-02-28T09:00:11;4.60;86.50
43338;DHT22;28933;52.492;13.434;2023-02-28T09:02:39;4.60;86.40
43338;DHT22;28933;52.492;13.434;2023-02-28T09:05:04;4.70;86.20
43338;DHT22;28933;52.492;13.434;2023-02-28T09:07:30;4.70;86.00
43338;DHT22;28933;52.492;13.434;2023-02-28T09:09:56;4.80;85.80
43338;DHT22;28933;52.492;13.434;2023-02-28T09:12:27;4.90;85.20
43338;DHT22;28933;52.492;13.434;2023-02-28T09:14:53;4.90;84.70
43338;DHT22;28933;52.492;13.434;2023-02-28T09:17:19;5.00;84.70
43338;DHT22;28933;52.492;13.434;2023-02-28T09:19:47;5.00;84.70
43338;DHT22;28933;52.492;13.434;2023-02-28T09:22:13;5.00;84.50
43338;DHT22;28933;52.492;13.434;2023-02-28T09:24:39;5.10;84.20
43338;DHT22;28933;52.492;13.434;2023-02-28T09:27:05;5.10;84.00
43338;DHT22;28933;52.492;13.434;2023-02-28T09:29:32;5.10;83.60
43338;DHT22;28933;52.492;13.434;2023-02-28T09:31:58;5.20;83.70
43338;DHT22;28933;52.492;13.434;2023-02-28T09:34:25;5.20;83.70
43338;DHT22;28933;52.492;13.434;2023-02-28T09:36:50;5.20;83.20
43338;DHT22;28933;52.492;13.434;2023-02-28T09:39:23;5.20;82.80
43338;DHT22;28933;52.492;13.434;2023-02-28T09:41:52;5.20;80.90
43338;DHT22;28933;52.492;13.434;2023-02-28T09:44:42;5.20;80.40
43338;DHT22;28933;52.492;13.434;2023-02-28T09:49:46;5.00;78.40
43338;DHT22;28933;52.492;13.434;2023-02-28T09:52:17;5.00;79.00
43338;DHT22;28933;52.492;13.434;2023-02-28T09:54:44;5.00;79.50
43338;DHT22;28933;52.492;13.434;2023-02-28T09:57:33;5.00;79.30
43338;DHT22;28933;52.492;13.434;2023-02-28T10:00:14;5.10;79.60
43338;DHT22;28933;52.492;13.434;2023-02-28T10:08:19;5.20;79.50
43338;DHT22;28933;52.492;13.434;2023-02-28T10:10:53;5.20;79.40
43338;DHT22;28933;52.492;13.434;2023-02-28T10:16:31;5.30;79.20
43338;DHT22;28933;52.492;13.434;2023-02-28T10:19:13;5.30;79.30
43338;DHT22;28933;52.492;13.434;2023-02-28T10:22:27;5.40;79.50
43338;DHT22;28933;52.492;13.434;2023-02-28T10:24:55;5.40;79.00
43338;DHT22;28933;52.492;13.434;2023-02-28T10:27:27;5.40;78.40
43338;DHT22;28933;52.492;13.434;2023-02-28T10:29:56;5.40;77.60
43338;DHT22;28933;52.492;13.434;2023-02-28T10:32:31;5.40;76.50
43338;DHT22;28933;52.492;13.434;2023-02-28T10:35:14;5.30;77.00
43338;DHT22;28933;52.492;13.434;2023-02-28T10:37:42;5.30;75.60
43338;DHT22;28933;52.492;13.434;2023-02-28T10:40:30;5.30;76.00
43338;DHT22;28933;52.492;13.434;2023-02-28T10:45:29;5.40;76.60
43338;DHT22;28933;52.492;13.434;2023-02-28T10:48:06;5.50;76.90
43338;DHT22;28933;52.492;13.434;2023-02-28T10:55:42;5.60;76.80
43338;DHT22;28933;52.492;13.434;2023-02-28T10:58:24;5.60;77.20
43338;DHT22;28933;52.492;13.434;2023-02-28T11:00:51;5.70;77.00
43338;DHT22;28933;52.492;13.434;2023-02-28T11:03:33;5.80;77.20
43338;DHT22;28933;52.492;13.434;2023-02-28T11:06:05;5.80;76.80
43338;DHT22;28933;52.492;13.434;2023-02-28T11:08:33;5.80;76.80
43338;DHT22;28933;52.492;13.434;2023-02-28T11:11:04;5.90;76.70
43338;DHT22;28933;52.492;13.434;2023-02-28T11:13:36;5.90;76.80
43338;DHT22;28933;52.492;13.434;2023-02-28T11:16:07;6.00;75.90
43338;DHT22;28933;52.492;13.434;2023-02-28T11:21:25;6.10;76.70
43338;DHT22;28933;52.492;13.434;2023-02-28T11:23:54;6.20;76.50
43338;DHT22;28933;52.492;13.434;2023-02-28T11:26:38;6.30;76.70
43338;DHT22;28933;52.492;13.434;2023-02-28T11:32:17;6.40;77.00
43338;DHT22;28933;52.492;13.434;2023-02-28T11:34:45;6.50;76.50
43338;DHT22;28933;52.492;13.434;2023-02-28T11:37:17;6.50;75.40
43338;DHT22;28933;52.492;13.434;2023-02-28T11:39:44;6.50;75.40
43338;DHT22;28933;52.492;13.434;2023-02-28T11:47:55;6.50;75.30
43338;DHT22;28933;52.492;13.434;2023-02-28T11:59:01;6.60;74.90
43338;DHT22;28933;52.492;13.434;2023-02-28T12:01:34;6.60;73.90
43338;DHT22;28933;52.492;13.434;2023-02-28T12:10:21;6.60;74.20
43338;DHT22;28933;52.492;13.434;2023-02-28T12:20:38;6.60;74.30
43338;DHT22;28933;52.492;13.434;2023-02-28T12:26:09;6.60;73.70
43338;DHT22;28933;52.492;13.434;2023-02-28T12:28:47;6.60;73.90
43338;DHT22;28933;52.492;13.434;2023-02-28T12:31:23;6.70;73.40
43338;DHT22;28933;52.492;13.434;2023-02-28T12:34:12;6.60;72.40
43338;DHT22;28933;52.492;13.434;2023-02-28T12:36:41;6.60;73.10
43338;DHT22;28933;52.492;13.434;2023-02-28T12:39:16;6.60;72.70
43338;DHT22;28933;52.492;13.434;2023-02-28T12:41:54;6.50;72.30
43338;DHT22;28933;52.492;13.434;2023-02-28T12:44:58;6.50;72.30
43338;DHT22;28933;52.492;13.434;2023-02-28T12:47:24;6.50;72.70
43338;DHT22;28933;52.492;13.434;2023-02-28T12:49:56;6.50;71.70
43338;DHT22;28933;52.492;13.434;2023-02-28T12:52:47;6.50;71.60
43338;DHT22;28933;52.492;13.434;2023-02-28T13:00:29;6.60;72.40
43338;DHT22;28933;52.492;13.434;2023-02-28T13:08:50;6.60;71.00
43338;DHT22;28933;52.492;13.434;2023-02-28T13:11:44;6.60;71.30
43338;DHT22;28933;52.492;13.434;2023-02-28T13:17:09;6.60;72.00
43338;DHT22;28933;52.492;13.434;2023-02-28T13:19:42;6.70;71.90
43338;DHT22;28933;52.492;13.434;2023-02-28T13:22:30;6.70;72.00
43338;DHT22;28933;52.492;13.434;2023-02-28T13:25:01;6.80;71.60
43338;DHT22;28933;52.492;13.434;2023-02-28T13:27:37;6.90;71.80
43338;DHT22;28933;52.492;13.434;2023-02-28T13:38:51;7.00;70.70
43338;DHT22;28933;52.492;13.434;2023-02-28T13:47:19;7.20;71.00
43338;DHT22;28933;52.492;13.434;2023-02-28T13:52:17;7.30;71.10
43338;DHT22;28933;52.492;13.434;2023-02-28T14:06:30;7.60;70.40
43338;DHT22;28933;52.492;13.434;2023-02-28T14:09:23;7.50;69.60
43338;DHT22;28933;52.492;13.434;2023-02-28T14:11:50;7.50;69.50
43338;DHT22;28933;52.492;13.434;2023-02-28T14:17:05;7.50;68.30
43338;DHT22;28933;52.492;13.434;2023-02-28T14:19:34;7.50;68.80
43338;DHT22;28933;52.492;13.434;2023-02-28T14:22:16;7.40;67.90
43338;DHT22;28933;52.492;13.434;2023-02-28T14:25:17;7.40;68.00
43338;DHT22;28933;52.492;13.434;2023-02-28T14:30:52;7.50;68.70
43338;DHT22;28933;52.492;13.434;2023-02-28T14:33:31;7.50;68.70
43338;DHT22;28933;52.492;13.434;2023-02-28T14:36:10;7.60;68.90
43338;DHT22;28933;52.492;13.434;2023-02-28T14:38:52;7.60;68.30
43338;DHT22;28933;52.492;13.434;2023-02-28T14:41:34;7.60;67.90
43338;DHT22;28933;52.492;13.434;2023-02-28T14:44:12;7.70;68.70
43338;DHT22;28933;52.492;13.434;2023-02-28T14:46:40;7.80;68.80
43338;DHT22;28933;52.492;13.434;2023-02-28T14:49:15;7.80;67.30
43338;DHT22;28933;52.492;13.434;2023-02-28T14:51:42;7.70;67.50
43338;DHT22;28933;52.492;13.434;2023-02-28T14:54:13;7.80;67.40
43338;DHT22;28933;52.492;13.434;2023-02-28T14:56:40;7.70;67.00
43338;DHT22;28933;52.492;13.434;2023-02-28T14:59:20;7.70;67.40
43338;DHT22;28933;52.492;13.434;2023-02-28T15:01:48;7.70;67.30
43338;DHT22;28933;52.492;13.434;2023-02-28T15:04:22;7.80;67.60
43338;DHT22;28933;52.492;13.434;2023-02-28T15:07:14;7.80;67.80
43338;DHT22;28933;52.492;13.434;2023-02-28T15:09:40;8.00;67.60
43338;DHT22;28933;52.492;13.434;2023-02-28T15:12:06;7.90;67.00
43338;DHT22;28933;52.492;13.434;2023-02-28T15:14:32;7.90;66.70
43338;DHT22;28933;52.492;13.434;2023-02-28T15:17:02;8.00;66.70
43338;DHT22;28933;52.492;13.434;2023-02-28T15:19:34;7.90;66.50
43338;DHT22;28933;52.492;13.434;2023-02-28T15:22:26;7.90;66.80
43338;DHT22;28933;52.492;13.434;2023-02-28T15:24:54;7.90;66.90
43338;DHT22;28933;52.492;13.434;2023-02-28T15:27:29;8.00;67.30
43338;DHT22;28933;52.492;13.434;2023-02-28T15:30:04;8.00;67.00
43338;DHT22;28933;52.492;13.434;2023-02-28T15:32:31;8.00;67.00
43338;DHT22;28933;52.492;13.434;2023-02-28T15:40:49;8.00;66.30
43338;DHT22;28933;52.492;13.434;2023-02-28T15:43:38;8.00;66.50
43338;DHT22;28933;52.492;13.434;2023-02-28T15:46:07;7.90;66.50
43338;DHT22;28933;52.492;13.434;2023-02-28T15:48:55;8.00;66.80
43338;DHT22;28933;52.492;13.434;2023-02-28T15:51:34;8.00;66.70
43338;DHT22;28933;52.492;13.434;2023-02-28T15:54:08;8.00;66.80
43338;DHT22;28933;52.492;13.434;2023-02-28T15:56:40;7.90;66.50
43338;DHT22;28933;52.492;13.434;2023-02-28T15:59:16;7.90;66.60
43338;DHT22;28933;52.492;13.434;2023-02-28T16:01:43;8.00;66.80
43338;DHT22;28933;52.492;13.434;2023-02-28T16:04:18;7.90;66.70
43338;DHT22;28933;52.492;13.434;2023-02-28T16:07:00;7.90;66.70
43338;DHT22;28933;52.492;13.434;2023-02-28T16:09:26;7.80;66.00
43338;DHT22;28933;52.492;13.434;2023-02-28T16:11:55;7.60;66.40
43338;DHT22;28933;52.492;13.434;2023-02-28T16:14:25;7.50;66.70
43338;DHT22;28933;52.492;13.434;2023-02-28T16:17:05;7.50;66.80
43338;DHT22;28933;52.492;13.434;2023-02-28T16:19:31;7.50;66.90
43338;DHT22;28933;52.492;13.434;2023-02-28T16:21:57;7.50;67.00
43338;DHT22;28933;52.492;13.434;2023-02-28T16:24:23;7.50;67.10
43338;DHT22;28933;52.492;13.434;2023-02-28T16:26:51;7.50;67.60
43338;DHT22;28933;52.492;13.434;2023-02-28T16:29:32;7.40;67.00
43338;DHT22;28933;52.492;13.434;2023-02-28T16:31:59;7.30;67.10
43338;DHT22;28933;52.492;13.434;2023-02-28T16:34:25;7.30;67.30
43338;DHT22;28933;52.492;13.434;2023-02-28T16:36:51;7.20;67.30
43338;DHT22;28933;52.492;13.434;2023-02-28T16:39:17;7.20;67.50
43338;DHT22;28933;52.492;13.434;2023-02-28T16:41:44;7.10;67.50
43338;DHT22;28933;52.492;13.434;2023-02-28T16:44:14;7.10;67.60
43338;DHT22;28933;52.492;13.434;2023-02-28T16:46:43;7.00;67.70
43338;DHT22;28933;52.492;13.434;2023-02-28T16:49:11;7.00;67.70
43338;DHT22;28933;52.492;13.434;2023-02-28T16:51:38;7.00;67.80
43338;DHT22;28933;52.492;13.434;2023-02-28T16:54:03;6.90;67.90
43338;DHT22;28933;52.492;13.434;2023-02-28T16:56:29;6.90;67.90
43338;DHT22;28933;52.492;13.434;2023-02-28T16:58:59;6.90;68.00
43338;DHT22;28933;52.492;13.434;2023-02-28T17:01:25;6.80;68.10
43338;DHT22;28933;52.492;13.434;2023-02-28T17:03:53;6.70;68.20
43338;DHT22;28933;52.492;13.434;2023-02-28T17:06:26;6.70;68.30
43338;DHT22;28933;52.492;13.434;2023-02-28T17:08:54;6.60;68.30
43338;DHT22;28933;52.492;13.434;2023-02-28T17:11:20;6.60;68.40
43338;DHT22;28933;52.492;13.434;2023-02-28T17:13:47;6.60;69.00
43338;DHT22;28933;52.492;13.434;2023-02-28T17:18:56;6.50;68.70
43338;DHT22;28933;52.492;13.434;2023-02-28T17:21:22;6.50;68.80
43338;DHT22;28933;52.492;13.434;2023-02-28T17:23:48;6.50;68.90
43338;DHT22;28933;52.492;13.434;2023-02-28T17:26:15;6.40;68.90
43338;DHT22;28933;52.492;13.434;2023-02-28T17:28:43;6.40;69.10
43338;DHT22;28933;52.492;13.434;2023-02-28T17:31:09;6.40;69.30
43338;DHT22;28933;52.492;13.434;2023-02-28T17:33:35;6.40;69.40
43338;DHT22;28933;52.492;13.434;2023-02-28T17:36:00;6.30;69.50
43338;DHT22;28933;52.492;13.434;2023-02-28T17:38:27;6.30;69.60
43338;DHT22;28933;52.492;13.434;2023-02-28T17:40:52;6.30;69.80
43338;DHT22;28933;52.492;13.434;2023-02-28T17:43:23;6.30;70.00
43338;DHT22;28933;52.492;13.434;2023-02-28T17:45:49;6.30;70.20
43338;DHT22;28933;52.492;13.434;2023-02-28T17:48:15;6.20;70.70
43338;DHT22;28933;52.492;13.434;2023-02-28T17:50:41;6.20;70.40
43338;DHT22;28933;52.492;13.434;2023-02-28T17:53:07;6.20;70.50
43338;DHT22;28933;52.492;13.434;2023-02-28T17:55:32;6.20;70.60
43338;DHT22;28933;52.492;13.434;2023-02-28T17:58:00;6.10;70.70
43338;DHT22;28933;52.492;13.434;2023-02-28T18:03:48;6.10;70.90
43338;DHT22;28933;52.492;13.434;2023-02-28T18:08:47;6.00;71.10
43338;DHT22;28933;52.492;13.434;2023-02-28T18:11:14;6.00;71.20
43338;DHT22;28933;52.492;13.434;2023-02-28T18:13:47;5.90;71.30
43338;DHT22;28933;52.492;13.434;2023-02-28T18:16:14;5.90;71.60
43338;DHT22;28933;52.492;13.434;2023-02-28T18:18:40;5.90;71.60
43338;DHT22;28933;52.492;13.434;2023-02-28T18:21:07;5.80;71.70
43338;DHT22;28933;52.492;13.434;2023-02-28T18:23:34;5.80;71.80